Airfield :
LOGIN :

Register | Disclaimer

   EN    FR    IT 

 










Legend :    VFR   Marginal VFR   IFR   Intensive IFR   Very Intensive IFR
Visi :
Ceiling :
>= 8 km
>= 3000ft
5 to 8 km
1000 to 3000 ft
1500m to 5 km
500 to 1000 ft
800 to 1500m
200 to 500 ft
< 800m
< 200 ft
Symbols :   Thunderstorms  Fog  Heavy snow  Heavy precipitations  Wind > 20 kt
SIGMETs :     Misc.  Thunderstorms  Icing  Turbulence  Mountain Waves  Volcanic Ashes






- Airport Elevation : 187 ft


ETNW - Wunstorf AB

CURRENT METAR :
  • 121020Z 21014KT 9999 FEW020 BKN040 07/02 Q1002 BLU BLU TEMPO GRN

EXPIRED METARs :
  • 120920Z 20011KT 9999 FEW020 SCT040 07/02 Q1002 BLU+BLU TEMPO GRN
  • 120820Z 18011KT 9999 FEW020 SCT028 05/02 Q1002 BLU+BLU TEMPO WHT

TAF COR TAF ETNW
Valid from the 12 at 06:00 until the 13 at 06:00 UTC


120537Z 1206/1306 18010KT 9999 NSW SCT020 BKN030
TEMPO 1206/1209 17012KT 9999 NSW BKN015
TEMPO 1209/1220 20015G28KT 4000 SHRA BKN010 BKN020CB
BECMG 1300/1302 16008KT 9000 NSW BKN020 BY ETGL



MET'MAP, your aeronautical weather chart ! - Copyright ORBIFLY December 2007 - Disclaimer

ORBIFLY MET'MAP TEAM :

Programming & Development : Alexandra Zaïnal
Concept & Development : Baudouin d'Aumeries
Co-Development & Prog : Marc-Olivier Méhu
Technical & hardware support : Manuel Goepfert

Contact : metmap@orbifly.com




SOURCES & CREDITS :

   NOAA